Crystal Spring, PA (15536)

8:33 PM EDT on April 25, 2015 (GMT -0400)
Cliffside Acres | | Change Station
CLOSE
Current Station
Personal Weather Station
Location: Everett, PA
Elevation: 948 ft
Nearby Weather Stations

Elev 948 ft 40.04 °N, 78.33 °W | Updated 26 seconds ago

Mostly Cloudy
Mostly Cloudy
47.7 °F
Feels Like 48 °F
N
0.0
Wind Variable Wind from North
Gusts 0.0 mph

Today
High -- | Low -- °F
--% Chance of Precip.
Yesterday
High -- | Low -- °F
Precip. -- in
6:21 AM 8:01 PM
Waxing Crescent, 50% visible
Pressure 29.69 in
Visibility 10.0 miles
Clouds Clear
Windchill 48 °F
Dew Point 32 °F
Humidity 54%
Rainfall 0.00 in
Snow Depth Not available.
UV 0 out of 12
Pollen 9.40 out of 12
Air Quality Not available.
Flu Activity Sporadic
METAR KHMZ 260015Z AUTO 23003KT 10SM CLR 09/M02 A2969 RMK AO2 T00851025

More Conditions Fewer Conditions

Pressure 29.69 in
Visibility 10.0 miles
Clouds Clear
Windchill 48 °F
Dew Point 32 °F
Humidity 54%
Rainfall 0.00 in
Snow Depth Not available.
UV 0 out of 12
Pollen 9.40 out of 12
Air Quality Not available.
Flu Activity Sporadic
METAR KHMZ 260015Z AUTO 23003KT 10SM CLR 09/M02 A2969 RMK AO2 T00851025

More Conditions Fewer Conditions

Nowcast | as of 5:27 PM EDT on April 25, 2015

Bands of showers will be across south central Pennsylvania this evening. Most of the showers will be along the Maryland border but a few showers may get as far north as Route 22 by midnight. The showers are moving southeast at 40 mph.

×

10-Day Weather Forecast

Almanac

Astronomy

Apr. 25, 2015 Rise Set
Actual Time
Civil Twilight
Nautical Twilight
Astronomical Twilight
Moon
Length of Visible Light
Length of Day
Tomorrow will be .
, % of the Moon is Illuminated

Today's Extremes

State Highs State Lows

Community

WunderPhotos

Upload Photos

1,816,865 photos uploaded!

WunderBlogs® & News

Nearby

Air Quality

  Air Quality AQ Index Pollutant
Not available.

Snow Depth

Station Depth Elevation

Earthquake Activity

City Distance Mag. Time & Date
Minimum magnitude displayed is 2.5.

Coastal Water Temperatures

Place Temperature

Stations

Nearby Weather Stations

Station Location Temp. Windchill Dew Point Humidity Wind Precip. Elev Updated Type